New Harbor, ME

43° 52' 34"N, 69° 29' 40"W, Elevation 65 ft.
Eastern Time

Hourly observations for the last 72 hours

Date Time Temperature (°F) Humi-
dity

(%)
Wind
(mph)
Pressure Rain (in) Sun
(W/m2)
ET
(in)
Air Dew 6 Hour 1 Hr 3 Hr 6 Hr Day
Alt
(in)
Sea
Level

(mb)
Max Min
23 21:00 13.8 2.8 61 NW 9 G 26 29.77 1008.3 0.00 0 0.035
23 20:00 15.1 4.1 61 NW 9 G 18 29.78 1008.5 0.00 0 0.034
23 19:00 16.3 4.8 25.3 16.2 60 NW 11 G 21 29.78 1008.6 0.00 0 0.033
23 18:00 17.9 6.0 59 NW 6 G 19 29.79 1008.9 0.00 0 0.032
23 17:00 19.9 7.1 57 WNW 8 G 17 29.77 1008.3 0.00 0 0.031
23 16:00 21.5 7.8 55 NW 9 G 22 29.75 1007.3 0.00 19 0.029
23 15:00 23.2 8.2 52 NNW 9 G 21 29.74 1007.0 0.00 97 0.026
23 14:00 24.7 9.6 52 WNW 8 G 16 29.74 1007.0 0.00 142 0.023
23 13:00 25.2 10.0 27.5 22.9 52 NNW 4 G 18 29.74 1007.0 0.00 264 0.017
23 12:00 25.3 10.6 53 WNW 10 G 20 29.75 1007.4 0.00 360 0.012
23 11:00 25.4 11.1 54 NNW 4 G 14 29.77 1008.2 0.00 434 0.008
23 10:00 24.0 12.9 62 NW 5 G 17 29.78 1008.5 0.00 44 0.007
23 09:00 23.3 12.6 63 NNW 7 G 13 29.77 1008.1 0.00 33 0.006
23 08:00 24.0 13.2 63 NNW 6 G 13 29.76 1007.9 0.00 47 0.005
23 07:00 23.7 12.9 28.5 23.7 63 NNW 6 G 14 29.76 1007.8 0.00 0 0.004
23 06:00 25.0 14.5 64 N 3 G 8 29.75 1007.4 0.00 0 0.003
23 05:00 26.6 16.1 64 N 5 G 12 29.73 1006.8 0.00 0 0.002
23 04:00 27.6 18.8 69 NNW 4 G 11 29.73 1006.6 0.00 0 0.001
23 03:00 28.2 20.7 73 NNW 3 G 12 29.73 1006.7 0.00 0 0.000
23 02:00 28.4 22.4 78 NNW 3 G 9 29.72 1006.5 0.00 0 0.000
23 01:00 28.3 24.1 32.0 27.6 84 NNW 2 G 4 29.71 1006.3 0.00 0 0.000
23 00:00 27.7 23.5 84 WNW 1 G 3 29.71 1006.0 0.00 0 0.019
22 23:00 29.7 25.5 84 WNW 1 G 3 29.70 1005.8 0.00 0 0.019
22 22:00 30.9 26.3 83 NW 1 G 3 29.69 1005.4 0.00 0 0.019
22 21:00 31.2 26.1 81 NW 1 G 4 29.69 1005.5 0.00 0 0.019
22 20:00 31.5 26.0 80 NW 2 G 3 29.67 1004.8 0.00 0 0.019
22 19:00 31.9 26.4 38.2 31.9 80 NNW 3 G 4 29.67 1004.7 0.00 0 0.019
22 18:00 32.7 26.9 79 N 1 G 4 29.65 1004.2 0.00 0 0.019
22 17:00 34.0 28.8 81 E 1 G 3 29.64 1003.6 0.00 0 0.019
22 16:00 35.1 29.9 81 E 0 G 1 29.60 1002.6 0.00 21 0.018
22 15:00 37.3 30.4 76 ENE 2 G 7 29.58 1001.7 0.00 127 0.016
22 14:00 37.3 29.4 73 ENE 2 G 4 29.56 1001.0 0.00 162 0.013
22 13:00 36.0 29.8 40.2 24.8 78 W 1 G 3 29.55 1000.8 0.00 272 0.010
22 12:00 35.8 29.6 78 SSE 2 G 4 29.56 1001.1 0.00 127 0.005
22 11:00 34.0 29.1 82 WNW 3 G 5 29.57 1001.5 0.00 116 0.002
22 10:00 30.1 27.3 89 ENE 1 G 4 29.58 1001.8 0.00 40 0.001
22 09:00 27.1 24.3 89 WNW 0 G 3 29.58 1001.6 0.00 42 0.000
22 08:00 25.5 22.7 89 WNW 2 G 4 29.57 1001.2 0.00 32 0.000
22 07:00 24.9 21.9 25.3 23.6 88 WNW 0 G 4 29.56 1001.0 0.00 0 0.000
22 06:00 24.5 21.2 87 WNW 2 G 4 29.55 1000.8 0.00 0 0.000
22 05:00 24.9 21.3 86 WNW 1 G 3 29.55 1000.6 0.00 0 0.000
22 04:00 24.3 20.4 85 WNW 2 G 3 29.55 1000.6 0.00 0 0.000
22 03:00 23.9 19.5 83 WNW 2 G 3 29.55 1000.6 0.00 0 0.000
22 02:00 25.0 19.7 80 Calm 29.56 1000.9 0.00 0 0.000
22 01:00 25.2 19.0 27.4 24.9 77 Calm 29.56 1000.9 0.00 0 0.000
22 00:00 25.0 18.8 77 Calm 29.57 1001.4 0.00 0 0.023
21 23:00 25.0 18.5 76 Calm 29.58 1001.8 0.00 0 0.023
21 22:00 25.2 18.4 75 Calm 29.59 1002.0 0.00 0 0.023
21 21:00 26.0 18.9 74 Calm 29.60 1002.4 0.00 0 0.023
21 20:00 26.9 19.4 73 WNW 1 G 3 29.60 1002.4 0.00 0 0.022
21 19:00 27.4 19.6 27.6 26.1 72 W 1 G 6 29.61 1002.8 0.00 0 0.021
21 18:00 27.2 19.7 73 WSW 3 G 11 29.61 1002.8 0.00 0 0.020
21 17:00 27.5 20.6 75 SW 2 G 4 29.61 1002.7 0.00 0 0.020
21 16:00 27.6 20.1 73 SSW 1 G 4 29.62 1003.0 0.00 12 0.019
21 15:00 27.3 18.8 70 S 1 G 5 29.64 1003.7 0.00 72 0.018
21 14:00 26.2 16.4 66 W 2 G 9 29.67 1004.6 0.00 91 0.016
21 13:00 27.4 16.1 28.3 14.9 62 SSW 7 G 14 29.69 1005.5 0.00 123 0.013
21 12:00 26.9 19.4 73 SSE 4 G 8 29.70 1005.7 0.00 146 0.010
21 11:00 23.8 16.4 73 ESE 2 G 5 29.74 1007.2 0.00 158 0.008
21 10:00 20.5 12.9 72 ENE 2 G 5 29.78 1008.5 0.00 148 0.007
21 09:00 17.2 8.8 69 NE 3 G 7 29.80 1009.3 0.00 105 0.006
21 08:00 15.4 7.7 71 NW 2 G 5 29.82 1010.0 0.00 33 0.006
21 07:00 15.1 7.4 19.1 15.0 71 NW 2 G 4 29.83 1010.3 0.00 0 0.006
21 06:00 15.4 7.7 71 WNW 4 G 8 29.85 1010.7 0.00 0 0.005
21 05:00 15.3 7.6 71 WNW 4 G 9 29.86 1011.1 0.00 0 0.004
21 04:00 16.0 7.6 69 NW 4 G 9 29.87 1011.5 0.00 0 0.003
21 03:00 17.2 9.1 70 NW 3 G 11 29.88 1012.0 0.00 0 0.002
21 02:00 18.0 10.2 71 NW 3 G 8 29.88 1011.8 0.00 0 0.001
21 01:00 19.1 8.6 27.4 19.1 63 NNW 2 G 5 29.88 1011.8 0.00 0 0.000
21 00:00 20.7 10.8 65 N 5 G 11 29.87 1011.7 0.00 0 0.029
20 23:00 21.9 11.2 63 NNW 5 G 11 29.88 1011.7 0.00 0 0.028
20 22:00 23.3 12.2 62 NW 3 G 12 29.87 1011.7 0.00 0 0.027

Data generated by WxSolution Version 1.9.1.8, Build 2020.02.16.